Metar Aviation Weather Data 0S9

52°F Temp
39°F Dewpoint
% Humidity
Temperature
MPH
0 KM/H
KTS
Calm
Due North

Wind Speed
Mostly Cloudy
Conditions
Pressure 1028.12 (hPa) - 30.36 (in)
Visibility 10.0 (mi) - 16.1 (km)

Current Conditions
0S9
Metar :K0S9 241735Z AUTO 00000KT 10SM BKN031 11/04 A3036 RMK AO2
Wed 24th April 10:35 am

  Metar Aviation API Data Provided by https://www.checkwx.com/ PHP scripts by weather34.com ©2019